Chem Orion — V7GZ9 — position and weather

sailwx.info

Track history (hours):
 
Tides and Currents Weather Stations Pressure Air Temp Water Temp Dewpoint Dewpoint Depression Visibility Wind Speed Wind Dir Waves Ship Positions

Chem Orion

Last reported at 2015-Jul-01 04:33 UTC. Time now 2015-Jul-01 12:48 UTC.
Position N 01°14' E 104°00'.

Length 125 m; draft 5.1 m.

Type: Ship (hazmat cat D). MMSI: 538002197.

Date/timePositionNaut miles runAvg speedWind from/ knotsBaromVisibWave heightAir tempDewpointWater temp
2015-Jul-01 04:33N 01°14' E 104°00'1110.6
2015-Jul-01 03:33N 01°12' E 103°50'8 7.8
2015-Jul-01 02:33N 01°15' E 103°43'0 0.1
2015-Jul-01 01:31N 01°15' E 103°43'0 0.0
2015-Jul-01 00:28N 01°15' E 103°43'0 0.0
2015-Jun-30 23:31N 01°15' E 103°43'0 0.0
2015-Jun-30 22:31N 01°15' E 103°43'0 0.0
2015-Jun-30 20:31N 01°15' E 103°43'0 0.0
2015-Jun-30 19:31N 01°15' E 103°43'0 0.0
2015-Jun-30 18:31N 01°15' E 103°43'0 0.0
2015-Jun-30 17:31N 01°15' E 103°43'0 0.1
2015-Jun-30 16:31N 01°15' E 103°43'0 0.0
2015-Jun-30 15:31N 01°15' E 103°43'0 0.0
2015-Jun-30 14:31N 01°15' E 103°43'0 0.1
2015-Jun-30 13:31N 01°15' E 103°43'0 0.0
2015-Jun-30 12:31N 01°15' E 103°43'0 0.1
2015-Jun-30 11:31N 01°15' E 103°43'0 0.0
2015-Jun-30 10:30N 01°15' E 103°43'0 0.1
2015-Jun-30 09:30N 01°15' E 103°43'0 0.1
2015-Jun-30 08:30N 01°15' E 103°43'0 0.1
2015-Jun-30 07:33N 01°15' E 103°43'0 0.5
2015-Jun-30 06:34N 01°15' E 103°42'2 1.2
2015-Jun-30 05:09N 01°16' E 103°41'0 0.0
2015-Jun-30 04:27N 01°16' E 103°41'0 0.0
2015-Jun-30 02:33N 01°16' E 103°41'0 0.0
2015-Jun-29 23:27N 01°16' E 103°41'0 0.0
2015-Jun-29 11:31N 01°16' E 103°41'4 3.6
2015-Jun-29 10:32N 01°13' E 103°39'0 0.1
2015-Jun-29 08:24N 01°14' E 103°39'73 8.8
2015-Jun-29 00:08N 01°45' E 102°33'34510.2
2015-Jun-27 14:13N 05°22' E 098°04'1110.1
2015-Jun-27 13:11N 05°27' E 097°54'  
Track history (hours):
 
Tides and Currents Weather Stations Pressure Air Temp Water Temp Dewpoint Dewpoint Depression Visibility Wind Speed Wind Dir Waves Ship Positions

Chem Orion

Last reported at 2015-Jul-01 04:33 UTC. Time now 2015-Jul-01 12:48 UTC.
Position N 01°14' E 104°00'.

Length 125 m; draft 5.1 m.

Type: Ship (hazmat cat D). MMSI: 538002197.

Date/timePositionNaut miles runAvg speedWind from/ knotsBaromVisibWave heightAir tempDewpointWater temp
2015-Jul-01 04:33N 01°14' E 104°00'1110.6
2015-Jul-01 03:33N 01°12' E 103°50'8 7.8
2015-Jul-01 02:33N 01°15' E 103°43'0 0.1
2015-Jul-01 01:31N 01°15' E 103°43'0 0.0
2015-Jul-01 00:28N 01°15' E 103°43'0 0.0
2015-Jun-30 23:31N 01°15' E 103°43'0 0.0
2015-Jun-30 22:31N 01°15' E 103°43'0 0.0
2015-Jun-30 20:31N 01°15' E 103°43'0 0.0
2015-Jun-30 19:31N 01°15' E 103°43'0 0.0
2015-Jun-30 18:31N 01°15' E 103°43'0 0.0
2015-Jun-30 17:31N 01°15' E 103°43'0 0.1
2015-Jun-30 16:31N 01°15' E 103°43'0 0.0
2015-Jun-30 15:31N 01°15' E 103°43'0 0.0
2015-Jun-30 14:31N 01°15' E 103°43'0 0.1
2015-Jun-30 13:31N 01°15' E 103°43'0 0.0
2015-Jun-30 12:31N 01°15' E 103°43'0 0.1
2015-Jun-30 11:31N 01°15' E 103°43'0 0.0
2015-Jun-30 10:30N 01°15' E 103°43'0 0.1
2015-Jun-30 09:30N 01°15' E 103°43'0 0.1
2015-Jun-30 08:30N 01°15' E 103°43'0 0.1
2015-Jun-30 07:33N 01°15' E 103°43'0 0.5
2015-Jun-30 06:34N 01°15' E 103°42'2 1.2
2015-Jun-30 05:09N 01°16' E 103°41'0 0.0
2015-Jun-30 04:27N 01°16' E 103°41'0 0.0
2015-Jun-30 02:33N 01°16' E 103°41'0 0.0
2015-Jun-29 23:27N 01°16' E 103°41'0 0.0
2015-Jun-29 11:31N 01°16' E 103°41'4 3.6
2015-Jun-29 10:32N 01°13' E 103°39'0 0.1
2015-Jun-29 08:24N 01°14' E 103°39'73 8.8
2015-Jun-29 00:08N 01°45' E 102°33'34510.2
2015-Jun-27 14:13N 05°22' E 098°04'1110.1
2015-Jun-27 13:11N 05°27' E 097°54'  

Dump ship's entire track history